Terminal Aerodrome Forecast
Issued by NWS Topeka, KS

Home | Current Version | Previous Version | Text Only | Print | Product List | Glossary Off
Versions: 1 2 3 4 5 6 7 8 9 10 11 12 13 14 15 16 17 18 19 20 21 22 23 24 25 26 27 28 29

000
FTUS43 KTOP 261611 AAB
TAFTOP
TAF AMD
KTOP 261611Z 2616/2712 10006KT P6SM SCT015 BKN020
     FM261800 14007KT P6SM SCT035
     FM270200 09006KT P6SM VCTS OVC020CB=

USA.gov is the U.S. government's official web portal to all federal, state and local government web resources and services.